​ ​

Форум клана ЧПУшников

Информация о пользователе

Привет, Гость! Войдите или зарегистрируйтесь.


Вы здесь » Форум клана ЧПУшников » Лазерные станки


Лазерные станки

Тем 1 страница 80 из 669

Тема Ответов Просмотров Последнее сообщение
1 Важно: Подскажите новичку 4  Kula  [ 1 2 3  9 ]
837 22136 14-06-2022 17:06:59  Mr.Operator
2 Важно: Фото готовых работ выполненных на лазере 2  Администратор  [ 1 2 3  10 ]
913 72902 12-12-2021 13:05:17  Спартак
172 11509 22-06-2020 15:49:13  Vera
0 42 27-06-2022 17:26:14  KRILLzolotov
3 84 27-06-2022 17:07:09  MaksSav4enko
0 22 27-06-2022 12:18:40  ebawas
5 135 27-06-2022 12:05:38  ebawas
8 ruida rdc 6563f  xrom91
2 41 24-06-2022 12:47:05  MaksSav4enko
7 107 23-06-2022 12:48:08  Andrey034
15 2822 21-06-2022 07:23:24  Влад UA1RG
33 1201 14-06-2022 10:13:41  MaksSav4enko
4 87 08-06-2022 15:32:25  MaksSav4enko
349 41882 01-06-2022 14:03:02  Stas_YA_nische
643 30285 24-05-2022 22:29:57  Хуарес
4 303 24-05-2022 00:48:23  xodok7612w
256 38606 20-05-2022 07:40:15  ИгорьМ
2 37 19-05-2022 14:55:21  Lev Oni
1 371 30-04-2022 10:30:45  Холик
0 39 22-04-2022 15:30:46  Erectly
0 26 13-04-2022 12:55:54  Pacific532654
21 AutoLaser и TL-403CB  SmileCat  [ 1 2 ]
177 7421 12-04-2022 21:58:34  maxbel
2 53 10-04-2022 23:22:35  Алексей Антонов
11 1661 14-03-2022 20:09:33  Vertlkal
24 Чиллер  Timoha55  [ 1 2 3 4 5 ]
498 19439 08-03-2022 12:26:28  в этом деле
1 68 25-02-2022 08:15:33  Alex_Asutp
26 CorelDraw  Vladimir821  [ 1 2 ]
165 9496 21-02-2022 15:21:37  SantaCom
8 173 21-02-2022 13:22:55  Dobroff
62 3266 12-02-2022 09:29:28  vasa29
29 ortur laser master2-20w  Александр Сихаев
8 634 05-02-2022 17:41:56  Василий12
30 руида 6442  ilya37rus
3 202 26-01-2022 17:55:16  mitskevich
2 65 20-01-2022 22:19:42  igordad
0 62 14-01-2022 17:39:23  MuForum
0 121 13-01-2022 14:41:57  MuForum
3 85 07-01-2022 14:47:55  vasa29
1 115 24-12-2021 01:37:21  АХА
17 916 20-12-2021 15:47:09  Jek44
0 47 16-12-2021 22:15:51  OlexandrM
2 85 12-12-2021 12:54:55  MuForum
99 6083 10-12-2021 09:36:03  Dinex
22 1544 09-12-2021 15:12:51  Алекс123665778
1 110 08-12-2021 17:36:42  shatrovmaxim
0 39 07-12-2021 17:40:35  MuForum
77 2759 07-12-2021 07:07:41  Dark Knight
5 225 02-12-2021 13:51:41  Sanana
202 9684 01-12-2021 17:45:26  Владимир syv
22 207 25-11-2021 12:31:30  Jeka One
96 15435 22-11-2021 05:56:26  Timoha55
5 183 21-11-2021 15:47:06  Triada
3 119 20-11-2021 16:34:25  appo
1 105 17-11-2021 15:08:58  Jeka One
193 6850 10-11-2021 14:22:23  inestigator
1 44 21-10-2021 20:23:27  Jeka One
53 выбор компрессора  ecto  [ 1 2 3 4 ]
377 17854 12-10-2021 04:21:10  МОДУЛЬНАЯ ФИЛЬТР-ГРУППА Д
2 173 08-10-2021 09:52:15  Сергей инженер-наладчик
28 1200 22-09-2021 08:45:00  Karbofos
26 2021 21-09-2021 15:54:53  Karbofos
24 519 30-08-2021 17:31:26  BlackOx
4 107 30-08-2021 13:11:33  TATAPNH
15 374 28-07-2021 14:15:30  Valera5609
2 157 21-07-2021 17:27:24  maks11
1 119 17-07-2021 12:57:11  Valera5609
4 1010 14-07-2021 07:18:08  Вассс
4 214 04-06-2021 15:09:22  AndreyV
1 125 25-05-2021 19:00:36  Valera5609
0 134 10-05-2021 08:37:38  Sanana
24 10884 26-04-2021 12:47:19  brainmo
107 8415 21-04-2021 11:09:49  Siga
39 3872 20-04-2021 21:08:30  Valera5609
239 27960 19-04-2021 10:20:09  Kinetic
3 172 15-04-2021 12:48:55  су-24
6 230 02-04-2021 15:14:00  Valera5609
72 LaserCAD  Valentin25
10 777 01-04-2021 16:02:13  Сергей Одесса
73 Нужна помощь специалистов!  Мастер на все руки
31 1767 29-03-2021 12:18:15  Владимирская?
1 109 24-03-2021 21:35:31  SNS
1 130 24-03-2021 16:56:07  Radiovolna
0 122 23-03-2021 13:17:34  headbI4
0 159 21-03-2021 13:18:28  headbI4
143 18401 16-03-2021 16:57:36  Valera5609
12 479 15-03-2021 23:02:45  ЮгРФ
0 199 15-03-2021 19:40:08  lazukin vlad

Вы здесь » Форум клана ЧПУшников » Лазерные станки